sensor_id;sensor_type;location;lat;lon;timestamp;pressure;altitude;pressure_sealevel;temperature;humidity
57847;BME280;43675;50.030;21.952;2024-02-26T00:00:20;97908.06;;;9.25;87.19
57847;BME280;43675;50.030;21.952;2024-02-26T00:03:07;97899.23;;;9.26;87.69
57847;BME280;43675;50.030;21.952;2024-02-26T00:05:33;97896.90;;;9.28;87.72
57847;BME280;43675;50.030;21.952;2024-02-26T00:08:00;97899.41;;;9.28;87.60
57847;BME280;43675;50.030;21.952;2024-02-26T00:10:27;97903.77;;;9.29;87.96
57847;BME280;43675;50.030;21.952;2024-02-26T00:12:53;97910.02;;;9.30;88.11
57847;BME280;43675;50.030;21.952;2024-02-26T00:15:20;97924.60;;;9.30;88.18
57847;BME280;43675;50.030;21.952;2024-02-26T00:17:47;97930.52;;;9.30;88.13
57847;BME280;43675;50.030;21.952;2024-02-26T00:20:13;97929.34;;;9.30;88.13
57847;BME280;43675;50.030;21.952;2024-02-26T00:22:40;97926.92;;;9.29;88.22
57847;BME280;43675;50.030;21.952;2024-02-26T00:25:07;97923.50;;;9.29;88.46
57847;BME280;43675;50.030;21.952;2024-02-26T00:27:40;97921.59;;;9.30;88.46
57847;BME280;43675;50.030;21.952;2024-02-26T00:30:07;97925.02;;;9.31;88.64
57847;BME280;43675;50.030;21.952;2024-02-26T00:32:34;97930.16;;;9.30;88.68
57847;BME280;43675;50.030;21.952;2024-02-26T00:35:01;97930.73;;;9.30;88.86
57847;BME280;43675;50.030;21.952;2024-02-26T00:37:27;97929.67;;;9.30;88.90
57847;BME280;43675;50.030;21.952;2024-02-26T00:39:54;97927.96;;;9.30;88.86
57847;BME280;43675;50.030;21.952;2024-02-26T00:42:27;97921.27;;;9.30;88.74
57847;BME280;43675;50.030;21.952;2024-02-26T00:44:54;97919.40;;;9.30;88.97
57847;BME280;43675;50.030;21.952;2024-02-26T00:47:27;97915.76;;;9.28;89.01
57847;BME280;43675;50.030;21.952;2024-02-26T00:49:54;97912.55;;;9.27;88.97
57847;BME280;43675;50.030;21.952;2024-02-26T00:52:20;97913.62;;;9.25;89.13
57847;BME280;43675;50.030;21.952;2024-02-26T00:54:47;97916.27;;;9.24;89.17
57847;BME280;43675;50.030;21.952;2024-02-26T00:57:14;97915.30;;;9.22;89.19
57847;BME280;43675;50.030;21.952;2024-02-26T00:59:40;97920.00;;;9.22;89.38
57847;BME280;43675;50.030;21.952;2024-02-26T01:02:07;97915.23;;;9.21;89.59
57847;BME280;43675;50.030;21.952;2024-02-26T01:04:34;97918.77;;;9.22;89.49
57847;BME280;43675;50.030;21.952;2024-02-26T01:07:00;97920.62;;;9.22;89.57
57847;BME280;43675;50.030;21.952;2024-02-26T01:09:27;97914.79;;;9.23;89.48
57847;BME280;43675;50.030;21.952;2024-02-26T01:11:54;97914.24;;;9.24;89.55
57847;BME280;43675;50.030;21.952;2024-02-26T01:14:20;97912.60;;;9.25;89.38
57847;BME280;43675;50.030;21.952;2024-02-26T01:16:47;97918.20;;;9.24;89.23
57847;BME280;43675;50.030;21.952;2024-02-26T01:19:13;97915.14;;;9.22;89.67
57847;BME280;43675;50.030;21.952;2024-02-26T01:21:40;97911.32;;;9.21;89.67
57847;BME280;43675;50.030;21.952;2024-02-26T01:24:06;97905.94;;;9.20;89.71
57847;BME280;43675;50.030;21.952;2024-02-26T01:26:33;97896.38;;;9.20;89.95
57847;BME280;43675;50.030;21.952;2024-02-26T01:29:00;97890.27;;;9.19;89.95
57847;BME280;43675;50.030;21.952;2024-02-26T01:31:26;97881.25;;;9.18;89.88
57847;BME280;43675;50.030;21.952;2024-02-26T01:33:53;97879.41;;;9.17;90.22
57847;BME280;43675;50.030;21.952;2024-02-26T01:36:19;97881.60;;;9.16;90.16
57847;BME280;43675;50.030;21.952;2024-02-26T01:38:53;97879.05;;;9.13;90.54
57847;BME280;43675;50.030;21.952;2024-02-26T01:41:19;97882.62;;;9.10;90.41
57847;BME280;43675;50.030;21.952;2024-02-26T01:43:46;97883.35;;;9.08;90.70
57847;BME280;43675;50.030;21.952;2024-02-26T01:46:14;97883.09;;;9.06;90.84
57847;BME280;43675;50.030;21.952;2024-02-26T01:48:42;97880.88;;;9.04;90.72
57847;BME280;43675;50.030;21.952;2024-02-26T01:51:10;97879.46;;;9.02;90.94
57847;BME280;43675;50.030;21.952;2024-02-26T01:53:37;97879.90;;;9.03;91.30
57847;BME280;43675;50.030;21.952;2024-02-26T01:56:12;97879.73;;;9.03;90.93
57847;BME280;43675;50.030;21.952;2024-02-26T01:58:39;97885.35;;;9.02;91.27
57847;BME280;43675;50.030;21.952;2024-02-26T02:01:06;97892.73;;;9.02;91.40
57847;BME280;43675;50.030;21.952;2024-02-26T02:03:33;97896.29;;;9.03;91.36
57847;BME280;43675;50.030;21.952;2024-02-26T02:06:00;97892.48;;;9.05;91.43
57847;BME280;43675;50.030;21.952;2024-02-26T02:08:27;97888.67;;;9.07;91.51
57847;BME280;43675;50.030;21.952;2024-02-26T02:10:53;97892.55;;;9.09;91.74
57847;BME280;43675;50.030;21.952;2024-02-26T02:13:20;97895.36;;;9.23;91.58
57847;BME280;43675;50.030;21.952;2024-02-26T02:15:47;97892.45;;;9.37;91.06
57847;BME280;43675;50.030;21.952;2024-02-26T02:18:13;97886.83;;;9.49;90.62
57847;BME280;43675;50.030;21.952;2024-02-26T02:20:40;97879.40;;;9.56;90.36
57847;BME280;43675;50.030;21.952;2024-02-26T02:23:06;97881.39;;;9.48;90.28
57847;BME280;43675;50.030;21.952;2024-02-26T02:25:33;97883.23;;;9.37;90.42
57847;BME280;43675;50.030;21.952;2024-02-26T02:28:00;97878.85;;;9.28;90.76
57847;BME280;43675;50.030;21.952;2024-02-26T02:30:33;97877.66;;;9.22;90.88
57847;BME280;43675;50.030;21.952;2024-02-26T02:33:00;97874.63;;;9.17;91.08
57847;BME280;43675;50.030;21.952;2024-02-26T02:35:27;97874.55;;;9.14;91.27
57847;BME280;43675;50.030;21.952;2024-02-26T02:37:56;97868.03;;;9.11;91.32
57847;BME280;43675;50.030;21.952;2024-02-26T02:40:23;97859.20;;;9.09;91.58
57847;BME280;43675;50.030;21.952;2024-02-26T02:42:50;97857.23;;;9.10;91.42
57847;BME280;43675;50.030;21.952;2024-02-26T02:45:17;97854.31;;;9.07;91.63
57847;BME280;43675;50.030;21.952;2024-02-26T02:47:43;97853.52;;;9.05;91.78
57847;BME280;43675;50.030;21.952;2024-02-26T02:50:10;97852.52;;;9.04;91.89
57847;BME280;43675;50.030;21.952;2024-02-26T02:52:36;97850.77;;;9.02;92.12
57847;BME280;43675;50.030;21.952;2024-02-26T02:55:03;97854.11;;;9.01;92.06
57847;BME280;43675;50.030;21.952;2024-02-26T02:57:36;97854.50;;;9.02;92.22
57847;BME280;43675;50.030;21.952;2024-02-26T03:00:03;97860.17;;;9.04;92.34
57847;BME280;43675;50.030;21.952;2024-02-26T03:02:30;97864.69;;;9.06;92.34
57847;BME280;43675;50.030;21.952;2024-02-26T03:04:57;97869.80;;;9.09;92.19
57847;BME280;43675;50.030;21.952;2024-02-26T03:07:23;97868.52;;;9.11;92.15
57847;BME280;43675;50.030;21.952;2024-02-26T03:09:50;97867.98;;;9.13;92.28
57847;BME280;43675;50.030;21.952;2024-02-26T03:12:23;97869.23;;;9.15;92.29
57847;BME280;43675;50.030;21.952;2024-02-26T03:14:49;97854.62;;;9.10;92.19
57847;BME280;43675;50.030;21.952;2024-02-26T03:17:16;97870.77;;;9.19;92.09
57847;BME280;43675;50.030;21.952;2024-02-26T03:19:44;97868.10;;;9.19;92.20
57847;BME280;43675;50.030;21.952;2024-02-26T03:22:10;97871.67;;;9.19;91.91
57847;BME280;43675;50.030;21.952;2024-02-26T03:24:37;97881.53;;;9.19;91.95
57847;BME280;43675;50.030;21.952;2024-02-26T03:27:04;97889.05;;;9.20;92.05
57847;BME280;43675;50.030;21.952;2024-02-26T03:29:30;97892.63;;;9.20;91.94
57847;BME280;43675;50.030;21.952;2024-02-26T03:32:04;97893.25;;;9.20;91.81
57847;BME280;43675;50.030;21.952;2024-02-26T03:34:32;97890.10;;;9.21;91.85
57847;BME280;43675;50.030;21.952;2024-02-26T03:36:59;97888.55;;;9.23;91.73
57847;BME280;43675;50.030;21.952;2024-02-26T03:39:25;97883.77;;;9.23;91.75
57847;BME280;43675;50.030;21.952;2024-02-26T03:41:52;97880.17;;;9.22;91.64
57847;BME280;43675;50.030;21.952;2024-02-26T03:44:19;97884.26;;;9.22;91.74
57847;BME280;43675;50.030;21.952;2024-02-26T03:46:45;97886.78;;;9.23;91.69
57847;BME280;43675;50.030;21.952;2024-02-26T03:49:12;97881.59;;;9.23;91.78
57847;BME280;43675;50.030;21.952;2024-02-26T03:51:38;97877.56;;;9.22;91.82
57847;BME280;43675;50.030;21.952;2024-02-26T03:54:05;97881.67;;;9.24;91.65
57847;BME280;43675;50.030;21.952;2024-02-26T03:56:32;97882.38;;;9.24;91.61
57847;BME280;43675;50.030;21.952;2024-02-26T03:59:05;97888.39;;;9.27;91.55
57847;BME280;43675;50.030;21.952;2024-02-26T04:01:32;97885.65;;;9.28;91.69
57847;BME280;43675;50.030;21.952;2024-02-26T04:03:58;97881.70;;;9.31;91.52
57847;BME280;43675;50.030;21.952;2024-02-26T04:06:25;97876.53;;;9.33;91.47
57847;BME280;43675;50.030;21.952;2024-02-26T04:08:51;97874.16;;;9.35;91.63
57847;BME280;43675;50.030;21.952;2024-02-26T04:11:18;97871.55;;;9.35;91.45
57847;BME280;43675;50.030;21.952;2024-02-26T04:13:45;97873.58;;;9.35;91.53
57847;BME280;43675;50.030;21.952;2024-02-26T04:16:11;97875.58;;;9.34;91.48
57847;BME280;43675;50.030;21.952;2024-02-26T04:18:44;97870.53;;;9.31;91.50
57847;BME280;43675;50.030;21.952;2024-02-26T04:21:11;97874.33;;;9.31;91.56
57847;BME280;43675;50.030;21.952;2024-02-26T04:23:37;97874.19;;;9.30;91.81
57847;BME280;43675;50.030;21.952;2024-02-26T04:26:05;97874.62;;;9.30;91.80
57847;BME280;43675;50.030;21.952;2024-02-26T04:28:31;97874.61;;;9.32;91.61
57847;BME280;43675;50.030;21.952;2024-02-26T04:30:58;97873.45;;;9.32;91.65
57847;BME280;43675;50.030;21.952;2024-02-26T04:33:24;97876.02;;;9.32;91.65
57847;BME280;43675;50.030;21.952;2024-02-26T04:35:51;97869.88;;;9.31;91.78
57847;BME280;43675;50.030;21.952;2024-02-26T04:38:18;97868.80;;;9.31;91.70
57847;BME280;43675;50.030;21.952;2024-02-26T04:40:44;97871.50;;;9.33;91.88
57847;BME280;43675;50.030;21.952;2024-02-26T04:43:11;97868.00;;;9.36;91.67
57847;BME280;43675;50.030;21.952;2024-02-26T04:45:38;97867.39;;;9.36;91.66
57847;BME280;43675;50.030;21.952;2024-02-26T04:48:05;97859.40;;;9.35;91.80
57847;BME280;43675;50.030;21.952;2024-02-26T04:50:31;97855.17;;;9.35;91.62
57847;BME280;43675;50.030;21.952;2024-02-26T04:52:58;97856.17;;;9.36;91.53
57847;BME280;43675;50.030;21.952;2024-02-26T04:55:25;97854.23;;;9.37;91.45
57847;BME280;43675;50.030;21.952;2024-02-26T04:57:51;97854.49;;;9.36;91.29
57847;BME280;43675;50.030;21.952;2024-02-26T05:00:18;97852.34;;;9.37;91.36
57847;BME280;43675;50.030;21.952;2024-02-26T05:02:44;97855.67;;;9.40;91.46
57847;BME280;43675;50.030;21.952;2024-02-26T05:05:11;97857.82;;;9.40;91.38
57847;BME280;43675;50.030;21.952;2024-02-26T05:07:44;97864.27;;;9.41;91.29
57847;BME280;43675;50.030;21.952;2024-02-26T05:10:11;97862.33;;;9.41;91.12
57847;BME280;43675;50.030;21.952;2024-02-26T05:12:37;97863.21;;;9.40;91.15
57847;BME280;43675;50.030;21.952;2024-02-26T05:15:05;97869.23;;;9.39;91.46
57847;BME280;43675;50.030;21.952;2024-02-26T05:17:31;97866.15;;;9.39;91.16
57847;BME280;43675;50.030;21.952;2024-02-26T05:19:58;97862.88;;;9.41;91.22
57847;BME280;43675;50.030;21.952;2024-02-26T05:22:25;97864.26;;;9.42;91.23
57847;BME280;43675;50.030;21.952;2024-02-26T05:24:51;97864.73;;;9.44;91.15
57847;BME280;43675;50.030;21.952;2024-02-26T05:27:18;97868.88;;;9.45;91.02
57847;BME280;43675;50.030;21.952;2024-02-26T05:29:44;97868.89;;;9.46;91.08
57847;BME280;43675;50.030;21.952;2024-02-26T05:32:11;97872.19;;;9.47;90.88
57847;BME280;43675;50.030;21.952;2024-02-26T05:34:38;97872.41;;;9.48;90.85
57847;BME280;43675;50.030;21.952;2024-02-26T05:37:05;97871.15;;;9.47;90.66
57847;BME280;43675;50.030;21.952;2024-02-26T05:39:31;97872.45;;;9.48;90.52
57847;BME280;43675;50.030;21.952;2024-02-26T05:41:58;97874.42;;;9.46;90.61
57847;BME280;43675;50.030;21.952;2024-02-26T05:44:26;97878.86;;;9.46;90.58
57847;BME280;43675;50.030;21.952;2024-02-26T05:46:53;97879.88;;;9.47;90.55
57847;BME280;43675;50.030;21.952;2024-02-26T05:49:26;97878.02;;;9.51;90.65
57847;BME280;43675;50.030;21.952;2024-02-26T05:51:53;97882.67;;;9.54;90.46
57847;BME280;43675;50.030;21.952;2024-02-26T05:54:20;97889.39;;;9.57;90.41
57847;BME280;43675;50.030;21.952;2024-02-26T05:56:46;97888.20;;;9.60;90.00
57847;BME280;43675;50.030;21.952;2024-02-26T05:59:13;97887.86;;;9.64;89.90
57847;BME280;43675;50.030;21.952;2024-02-26T06:01:40;97887.95;;;9.69;89.72
57847;BME280;43675;50.030;21.952;2024-02-26T06:04:07;97886.95;;;9.72;89.49
57847;BME280;43675;50.030;21.952;2024-02-26T06:06:33;97895.11;;;9.73;89.18
57847;BME280;43675;50.030;21.952;2024-02-26T06:09:00;97898.23;;;9.72;88.94
57847;BME280;43675;50.030;21.952;2024-02-26T06:11:26;97898.05;;;9.72;88.84
57847;BME280;43675;50.030;21.952;2024-02-26T06:13:53;97898.96;;;9.72;88.73
57847;BME280;43675;50.030;21.952;2024-02-26T06:16:20;97904.09;;;9.67;88.58
57847;BME280;43675;50.030;21.952;2024-02-26T06:18:46;97908.53;;;9.62;88.72
57847;BME280;43675;50.030;21.952;2024-02-26T06:21:19;97914.21;;;9.56;88.67
57847;BME280;43675;50.030;21.952;2024-02-26T06:23:46;97920.90;;;9.53;88.77
57847;BME280;43675;50.030;21.952;2024-02-26T06:26:13;97918.50;;;9.50;88.63
57847;BME280;43675;50.030;21.952;2024-02-26T06:28:39;97921.59;;;9.47;88.77
57847;BME280;43675;50.030;21.952;2024-02-26T06:31:06;97921.69;;;9.45;88.76
57847;BME280;43675;50.030;21.952;2024-02-26T06:33:39;97923.95;;;9.45;88.82
57847;BME280;43675;50.030;21.952;2024-02-26T06:36:06;97927.64;;;9.48;89.05
57847;BME280;43675;50.030;21.952;2024-02-26T06:38:33;97926.39;;;9.52;88.84
57847;BME280;43675;50.030;21.952;2024-02-26T06:40:59;97927.98;;;9.59;89.16
57847;BME280;43675;50.030;21.952;2024-02-26T06:43:26;97924.87;;;9.67;88.90
57847;BME280;43675;50.030;21.952;2024-02-26T06:45:53;97924.16;;;9.77;88.84
57847;BME280;43675;50.030;21.952;2024-02-26T06:48:19;97922.48;;;9.86;88.64
57847;BME280;43675;50.030;21.952;2024-02-26T06:50:46;97924.67;;;9.95;88.29
57847;BME280;43675;50.030;21.952;2024-02-26T06:53:12;97928.70;;;10.02;88.16
57847;BME280;43675;50.030;21.952;2024-02-26T06:55:39;97929.98;;;10.08;87.75
57847;BME280;43675;50.030;21.952;2024-02-26T06:58:05;97929.52;;;10.15;87.52
57847;BME280;43675;50.030;21.952;2024-02-26T07:00:32;97935.98;;;10.22;87.31
57847;BME280;43675;50.030;21.952;2024-02-26T07:02:59;97937.98;;;10.31;87.02
57847;BME280;43675;50.030;21.952;2024-02-26T07:05:25;97936.90;;;10.34;86.81
57847;BME280;43675;50.030;21.952;2024-02-26T07:07:52;97938.09;;;10.39;86.69
57847;BME280;43675;50.030;21.952;2024-02-26T07:10:19;97940.20;;;10.45;86.45
57847;BME280;43675;50.030;21.952;2024-02-26T07:12:45;97936.95;;;10.52;86.28
57847;BME280;43675;50.030;21.952;2024-02-26T07:15:12;97935.73;;;10.60;86.06
57847;BME280;43675;50.030;21.952;2024-02-26T07:17:38;97930.81;;;10.67;85.84
57847;BME280;43675;50.030;21.952;2024-02-26T07:20:05;97932.81;;;10.73;85.53
57847;BME280;43675;50.030;21.952;2024-02-26T07:22:39;97933.38;;;10.80;85.29
57847;BME280;43675;50.030;21.952;2024-02-26T07:25:06;97932.23;;;10.85;85.04
57847;BME280;43675;50.030;21.952;2024-02-26T07:27:33;97937.19;;;10.92;84.80
57847;BME280;43675;50.030;21.952;2024-02-26T07:29:59;97940.39;;;11.13;84.36
57847;BME280;43675;50.030;21.952;2024-02-26T07:32:32;97942.77;;;11.28;83.53
57847;BME280;43675;50.030;21.952;2024-02-26T07:34:59;97939.91;;;11.31;83.17
57847;BME280;43675;50.030;21.952;2024-02-26T07:37:25;97939.58;;;11.33;83.03
57847;BME280;43675;50.030;21.952;2024-02-26T07:39:52;97941.41;;;11.36;82.89
57847;BME280;43675;50.030;21.952;2024-02-26T07:42:19;97941.92;;;11.42;82.65
57847;BME280;43675;50.030;21.952;2024-02-26T07:44:45;97944.73;;;11.51;82.30
57847;BME280;43675;50.030;21.952;2024-02-26T07:47:12;97941.68;;;11.60;82.10
57847;BME280;43675;50.030;21.952;2024-02-26T07:49:39;97944.27;;;11.68;81.92
57847;BME280;43675;50.030;21.952;2024-02-26T07:52:06;97941.48;;;11.78;81.58
57847;BME280;43675;50.030;21.952;2024-02-26T07:54:33;97945.04;;;11.90;81.30
57847;BME280;43675;50.030;21.952;2024-02-26T07:56:59;97948.11;;;11.99;80.95
57847;BME280;43675;50.030;21.952;2024-02-26T07:59:26;97951.33;;;12.09;80.39
57847;BME280;43675;50.030;21.952;2024-02-26T08:01:53;97951.44;;;12.19;79.99
57847;BME280;43675;50.030;21.952;2024-02-26T08:04:19;97947.66;;;12.31;79.49
57847;BME280;43675;50.030;21.952;2024-02-26T08:06:46;97945.31;;;12.41;78.98
57847;BME280;43675;50.030;21.952;2024-02-26T08:09:12;97944.35;;;12.48;78.59
57847;BME280;43675;50.030;21.952;2024-02-26T08:11:39;97944.92;;;12.53;78.33
57847;BME280;43675;50.030;21.952;2024-02-26T08:14:06;97938.59;;;12.58;78.12
57847;BME280;43675;50.030;21.952;2024-02-26T08:16:32;97938.09;;;12.63;77.90
57847;BME280;43675;50.030;21.952;2024-02-26T08:18:59;97937.36;;;12.69;77.77
57847;BME280;43675;50.030;21.952;2024-02-26T08:21:26;97931.92;;;12.76;77.49
57847;BME280;43675;50.030;21.952;2024-02-26T08:23:52;97930.27;;;12.83;76.96
57847;BME280;43675;50.030;21.952;2024-02-26T08:26:19;97924.48;;;12.90;76.72
57847;BME280;43675;50.030;21.952;2024-02-26T08:28:52;97926.42;;;12.98;76.49
57847;BME280;43675;50.030;21.952;2024-02-26T08:31:19;97919.62;;;13.06;76.02
57847;BME280;43675;50.030;21.952;2024-02-26T08:33:45;97927.70;;;13.13;75.35
57847;BME280;43675;50.030;21.952;2024-02-26T08:36:12;97923.35;;;13.18;74.48
57847;BME280;43675;50.030;21.952;2024-02-26T08:38:39;97925.03;;;13.22;73.97
57847;BME280;43675;50.030;21.952;2024-02-26T08:41:05;97933.41;;;13.29;73.84
57847;BME280;43675;50.030;21.952;2024-02-26T08:43:32;97930.88;;;13.33;73.32
57847;BME280;43675;50.030;21.952;2024-02-26T08:45:59;97935.15;;;13.38;72.80
57847;BME280;43675;50.030;21.952;2024-02-26T08:48:25;97934.97;;;13.41;72.16
57847;BME280;43675;50.030;21.952;2024-02-26T08:50:52;97935.75;;;13.43;71.91
57847;BME280;43675;50.030;21.952;2024-02-26T08:53:20;97934.98;;;13.46;71.47
57847;BME280;43675;50.030;21.952;2024-02-26T08:55:46;97936.23;;;13.51;71.10
57847;BME280;43675;50.030;21.952;2024-02-26T08:58:13;97939.02;;;13.54;70.89
57847;BME280;43675;50.030;21.952;2024-02-26T09:00:46;97940.05;;;13.59;70.89
57847;BME280;43675;50.030;21.952;2024-02-26T09:03:13;97940.89;;;13.63;70.54
57847;BME280;43675;50.030;21.952;2024-02-26T09:05:40;97935.88;;;13.67;70.58
57847;BME280;43675;50.030;21.952;2024-02-26T09:08:06;97940.14;;;13.71;70.40
57847;BME280;43675;50.030;21.952;2024-02-26T09:10:33;97942.18;;;13.75;70.13
57847;BME280;43675;50.030;21.952;2024-02-26T09:13:00;97939.98;;;13.78;69.85
57847;BME280;43675;50.030;21.952;2024-02-26T09:15:33;97940.33;;;13.83;69.68
57847;BME280;43675;50.030;21.952;2024-02-26T09:18:00;97942.48;;;13.92;69.58
57847;BME280;43675;50.030;21.952;2024-02-26T09:20:26;97941.42;;;14.05;69.49
57847;BME280;43675;50.030;21.952;2024-02-26T09:22:53;97948.05;;;14.20;69.26
57847;BME280;43675;50.030;21.952;2024-02-26T09:25:19;97947.69;;;14.41;68.91
57847;BME280;43675;50.030;21.952;2024-02-26T09:27:46;97946.40;;;14.61;68.64
57847;BME280;43675;50.030;21.952;2024-02-26T09:30:13;97943.85;;;14.80;67.97
57847;BME280;43675;50.030;21.952;2024-02-26T09:32:40;97940.33;;;15.11;67.35
57847;BME280;43675;50.030;21.952;2024-02-26T09:35:07;97941.91;;;15.42;66.57
57847;BME280;43675;50.030;21.952;2024-02-26T09:37:34;97941.89;;;15.67;65.92
57847;BME280;43675;50.030;21.952;2024-02-26T09:40:00;97936.14;;;15.84;65.31
57847;BME280;43675;50.030;21.952;2024-02-26T09:42:34;97932.54;;;15.90;64.71
57847;BME280;43675;50.030;21.952;2024-02-26T09:45:05;97929.20;;;15.98;64.30
57847;BME280;43675;50.030;21.952;2024-02-26T09:47:33;97933.45;;;16.09;63.81
57847;BME280;43675;50.030;21.952;2024-02-26T09:50:00;97930.56;;;16.26;63.32
57847;BME280;43675;50.030;21.952;2024-02-26T09:52:28;97929.70;;;16.35;62.68
57847;BME280;43675;50.030;21.952;2024-02-26T09:54:55;97928.95;;;16.39;61.93
57847;BME280;43675;50.030;21.952;2024-02-26T09:57:21;97927.65;;;16.41;61.77
57847;BME280;43675;50.030;21.952;2024-02-26T09:59:49;97927.88;;;16.43;61.01
57847;BME280;43675;50.030;21.952;2024-02-26T10:02:17;97931.23;;;16.46;60.96
57847;BME280;43675;50.030;21.952;2024-02-26T10:04:52;97931.67;;;16.53;60.85
57847;BME280;43675;50.030;21.952;2024-02-26T10:07:20;97932.56;;;16.63;60.28
57847;BME280;43675;50.030;21.952;2024-02-26T10:09:47;97932.89;;;16.67;60.20
57847;BME280;43675;50.030;21.952;2024-02-26T10:12:15;97937.34;;;16.69;59.72
57847;BME280;43675;50.030;21.952;2024-02-26T10:14:42;97932.84;;;16.69;59.68
57847;BME280;43675;50.030;21.952;2024-02-26T10:17:10;97936.13;;;16.73;59.73
57847;BME280;43675;50.030;21.952;2024-02-26T10:19:36;97936.62;;;16.71;59.21
57847;BME280;43675;50.030;21.952;2024-02-26T10:22:03;97940.15;;;16.67;59.09
57847;BME280;43675;50.030;21.952;2024-02-26T10:24:30;97944.23;;;16.62;58.88
57847;BME280;43675;50.030;21.952;2024-02-26T10:26:57;97940.32;;;16.60;58.62
57847;BME280;43675;50.030;21.952;2024-02-26T10:29:25;97936.00;;;16.55;58.28
57847;BME280;43675;50.030;21.952;2024-02-26T10:31:52;97934.66;;;16.53;58.04
57847;BME280;43675;50.030;21.952;2024-02-26T10:34:19;97933.76;;;16.59;58.30
57847;BME280;43675;50.030;21.952;2024-02-26T10:36:46;97930.02;;;16.63;57.73
57847;BME280;43675;50.030;21.952;2024-02-26T10:39:13;97931.97;;;16.69;57.69
57847;BME280;43675;50.030;21.952;2024-02-26T10:41:41;97923.13;;;16.79;57.50
57847;BME280;43675;50.030;21.952;2024-02-26T10:44:12;97921.49;;;16.88;57.18
57847;BME280;43675;50.030;21.952;2024-02-26T10:46:42;97932.77;;;16.88;56.63
57847;BME280;43675;50.030;21.952;2024-02-26T10:49:14;97934.34;;;16.83;56.31
57847;BME280;43675;50.030;21.952;2024-02-26T10:51:44;97930.89;;;16.75;56.17
57847;BME280;43675;50.030;21.952;2024-02-26T10:54:15;97928.98;;;16.67;56.16
57847;BME280;43675;50.030;21.952;2024-02-26T10:56:42;97932.02;;;16.56;55.69
57847;BME280;43675;50.030;21.952;2024-02-26T10:59:09;97925.86;;;16.50;56.04
57847;BME280;43675;50.030;21.952;2024-02-26T11:01:42;97925.79;;;16.66;55.85
57847;BME280;43675;50.030;21.952;2024-02-26T11:04:10;97926.60;;;16.86;55.64
57847;BME280;43675;50.030;21.952;2024-02-26T11:06:38;97927.50;;;17.02;55.11
57847;BME280;43675;50.030;21.952;2024-02-26T11:09:04;97922.83;;;17.11;54.59
57847;BME280;43675;50.030;21.952;2024-02-26T11:11:33;97924.44;;;17.07;54.63
57847;BME280;43675;50.030;21.952;2024-02-26T11:14:01;97923.91;;;17.01;54.25
57847;BME280;43675;50.030;21.952;2024-02-26T11:16:30;97924.35;;;16.99;54.16
57847;BME280;43675;50.030;21.952;2024-02-26T11:18:57;97926.65;;;16.93;54.31
57847;BME280;43675;50.030;21.952;2024-02-26T11:21:30;97927.77;;;16.90;54.25
57847;BME280;43675;50.030;21.952;2024-02-26T11:23:57;97931.14;;;16.92;54.17
57847;BME280;43675;50.030;21.952;2024-02-26T11:26:25;97926.46;;;16.97;54.00
57847;BME280;43675;50.030;21.952;2024-02-26T11:28:53;97924.59;;;17.14;53.97
57847;BME280;43675;50.030;21.952;2024-02-26T11:31:24;97917.77;;;17.30;53.26
57847;BME280;43675;50.030;21.952;2024-02-26T11:33:51;97918.16;;;17.45;52.73
57847;BME280;43675;50.030;21.952;2024-02-26T11:36:19;97915.74;;;17.56;52.18
57847;BME280;43675;50.030;21.952;2024-02-26T11:38:46;97918.30;;;17.53;52.03
57847;BME280;43675;50.030;21.952;2024-02-26T11:41:13;97918.25;;;17.49;52.10
57847;BME280;43675;50.030;21.952;2024-02-26T11:43:52;97919.01;;;17.49;51.91
57847;BME280;43675;50.030;21.952;2024-02-26T11:46:30;97912.60;;;17.52;51.61
57847;BME280;43675;50.030;21.952;2024-02-26T11:49:01;97915.84;;;17.55;51.47
57847;BME280;43675;50.030;21.952;2024-02-26T11:51:33;97910.48;;;17.59;51.34
57847;BME280;43675;50.030;21.952;2024-02-26T11:54:07;97908.98;;;17.65;51.53
57847;BME280;43675;50.030;21.952;2024-02-26T11:56:34;97911.76;;;17.75;51.37
57847;BME280;43675;50.030;21.952;2024-02-26T11:59:09;97911.36;;;17.81;51.33
57847;BME280;43675;50.030;21.952;2024-02-26T12:01:39;97905.81;;;17.82;50.87
57847;BME280;43675;50.030;21.952;2024-02-26T12:04:24;97908.48;;;17.82;50.55
57847;BME280;43675;50.030;21.952;2024-02-26T12:06:52;97909.23;;;17.80;50.39
57847;BME280;43675;50.030;21.952;2024-02-26T12:12:03;97905.73;;;17.77;50.48
57847;BME280;43675;50.030;21.952;2024-02-26T12:14:33;97904.55;;;17.75;50.25
57847;BME280;43675;50.030;21.952;2024-02-26T12:17:00;97909.77;;;17.74;50.06
57847;BME280;43675;50.030;21.952;2024-02-26T12:19:27;97906.77;;;17.75;49.95
57847;BME280;43675;50.030;21.952;2024-02-26T12:21:54;97905.05;;;17.92;49.95
57847;BME280;43675;50.030;21.952;2024-02-26T12:24:20;97906.64;;;18.09;49.59
57847;BME280;43675;50.030;21.952;2024-02-26T12:26:47;97909.56;;;18.11;48.89
57847;BME280;43675;50.030;21.952;2024-02-26T12:29:14;97912.21;;;18.13;48.87
57847;BME280;43675;50.030;21.952;2024-02-26T12:31:41;97914.51;;;18.18;48.64
57847;BME280;43675;50.030;21.952;2024-02-26T12:34:08;97915.52;;;18.12;48.68
57847;BME280;43675;50.030;21.952;2024-02-26T12:36:36;97916.59;;;18.05;48.91
57847;BME280;43675;50.030;21.952;2024-02-26T12:39:03;97920.13;;;18.05;48.80
57847;BME280;43675;50.030;21.952;2024-02-26T12:41:29;97922.17;;;18.09;48.81
57847;BME280;43675;50.030;21.952;2024-02-26T12:43:57;97927.48;;;18.20;48.85
57847;BME280;43675;50.030;21.952;2024-02-26T12:46:24;97925.92;;;18.25;48.88
57847;BME280;43675;50.030;21.952;2024-02-26T12:48:50;97927.99;;;18.31;48.46
57847;BME280;43675;50.030;21.952;2024-02-26T12:51:17;97932.33;;;18.33;48.42
57847;BME280;43675;50.030;21.952;2024-02-26T12:53:45;97933.38;;;18.31;47.81
57847;BME280;43675;50.030;21.952;2024-02-26T12:56:12;97930.16;;;18.24;47.75
57847;BME280;43675;50.030;21.952;2024-02-26T12:58:46;97931.23;;;18.18;47.97